EZS37YZ GMTT-LSGG
Flight info
| Callsign | EZS37YZ |
|---|---|
| Flight time | 2h 1m |
| Altitude | 34000 |
| Route | NOLRO2D NOLRO DCT ADKIM Z53 VJF L27 MAR DCT ALCOL/N0433F360 N871 TOPTU DCT TOU DCT GAI/N0418F340 DCT MEN/N0397F300 DCT NINUN DCT LATAM DCT ETREK DCT LUXAN G53 LTP Z16 BELUS |
| Aircraft | A320/M-SDE2E3FGHIJ1RWXYZ/LB1 |
Departure
| Time | 2026-05-04 14:08 |
|---|---|
| Airport | Tangier Ibn Battuta Airport (GMTT) |
Arrival
| Time | 2026-05-04 16:09 |
|---|---|
| Airport | Geneva International Airport (LSGG) |
| Time | Latitude | Longitude | Altitude | Speed | Heading |
|---|---|---|---|---|---|
| 2026-05-04 13:15 | 35.72524 | -5.91250 | 60 ft | 0 kts | 356° |
| 2026-05-04 14:00 | 35.72496 | -5.91245 | 54 ft | 4 kts | 346° |
| 2026-05-04 14:00 | 35.72470 | -5.91235 | 60 ft | 4 kts | 330° |
| 2026-05-04 14:01 | 35.72451 | -5.91215 | 54 ft | 4 kts | 295° |
| 2026-05-04 14:01 | 35.72447 | -5.91199 | 60 ft | 0 kts | 265° |
| 2026-05-04 14:03 | 35.72446 | -5.91218 | 55 ft | 6 kts | 265° |
| 2026-05-04 14:03 | 35.72441 | -5.91293 | 60 ft | 10 kts | 265° |
| 2026-05-04 14:03 | 35.72435 | -5.91390 | 60 ft | 13 kts | 266° |
| 2026-05-04 14:03 | 35.72428 | -5.91521 | 57 ft | 16 kts | 266° |
| 2026-05-04 14:04 | 35.72584 | -5.91693 | 53 ft | 20 kts | 355° |
| 2026-05-04 14:04 | 35.72726 | -5.91707 | 60 ft | 21 kts | 355° |
| 2026-05-04 14:04 | 35.72867 | -5.91719 | 57 ft | 15 kts | 356° |
| 2026-05-04 14:05 | 35.72924 | -5.91484 | 57 ft | 21 kts | 97° |
| 2026-05-04 14:05 | 35.72908 | -5.91314 | 60 ft | 19 kts | 96° |
| 2026-05-04 14:05 | 35.72892 | -5.91138 | 60 ft | 23 kts | 96° |
| 2026-05-04 14:06 | 35.72874 | -5.90946 | 60 ft | 22 kts | 97° |
| 2026-05-04 14:06 | 35.72857 | -5.90769 | 53 ft | 21 kts | 96° |
| 2026-05-04 14:06 | 35.72839 | -5.90579 | 56 ft | 22 kts | 96° |
| 2026-05-04 14:06 | 35.72823 | -5.90401 | 59 ft | 20 kts | 96° |
| 2026-05-04 14:07 | 35.72826 | -5.90251 | 59 ft | 16 kts | 63° |
| 2026-05-04 14:07 | 35.72914 | -5.90193 | 58 ft | 15 kts | 354° |
| 2026-05-04 14:07 | 35.72985 | -5.90237 | 59 ft | 8 kts | 310° |
| 2026-05-04 14:07 | 35.72995 | -5.90311 | 58 ft | 12 kts | 277° |
| 2026-05-04 14:08 | 35.73024 | -5.90624 | 60 ft | 71 kts | 276° |
| 2026-05-04 14:08 | 35.73105 | -5.91482 | 57 ft | 129 kts | 276° |
| 2026-05-04 14:08 | 35.73223 | -5.92763 | 206 ft | 161 kts | 278° |
| 2026-05-04 14:08 | 35.73358 | -5.94112 | 944 ft | 158 kts | 279° |
| 2026-05-04 14:09 | 35.73729 | -5.97081 | 1805 ft | 199 kts | 279° |
| 2026-05-04 14:09 | 35.73952 | -5.98866 | 2223 ft | 223 kts | 278° |
| 2026-05-04 14:10 | 35.75185 | -6.02581 | 3662 ft | 251 kts | 316° |
| 2026-05-04 14:10 | 35.76744 | -6.03604 | 4515 ft | 263 kts | 345° |
| 2026-05-04 14:10 | 35.78601 | -6.03579 | 5395 ft | 273 kts | 5° |
| 2026-05-04 14:10 | 35.80490 | -6.03248 | 6262 ft | 276 kts | 4° |
| 2026-05-04 14:11 | 35.82413 | -6.02949 | 7077 ft | 280 kts | 3° |
| 2026-05-04 14:11 | 35.86347 | -6.02406 | 8661 ft | 289 kts | 1° |
| 2026-05-04 14:11 | 35.88365 | -6.02160 | 9444 ft | 294 kts | 1° |
| 2026-05-04 14:12 | 35.90421 | -6.01908 | 10197 ft | 300 kts | 1° |
| 2026-05-04 14:12 | 35.92568 | -6.01644 | 10538 ft | 321 kts | 1° |
| 2026-05-04 14:12 | 35.97204 | -6.01062 | 11636 ft | 342 kts | 1° |
| 2026-05-04 14:13 | 35.99583 | -6.00753 | 12376 ft | 346 kts | 1° |
| 2026-05-04 14:13 | 36.01987 | -6.00434 | 13139 ft | 349 kts | 2° |
| 2026-05-04 14:13 | 36.04412 | -6.00109 | 13880 ft | 353 kts | 2° |
| 2026-05-04 14:13 | 36.06867 | -5.99784 | 14536 ft | 356 kts | 1° |
| 2026-05-04 14:14 | 36.09338 | -5.99463 | 15177 ft | 359 kts | 1° |
| 2026-05-04 14:14 | 36.14362 | -5.98812 | 16424 ft | 367 kts | 1° |
| 2026-05-04 14:14 | 36.16910 | -5.98475 | 17042 ft | 370 kts | 1° |
| 2026-05-04 14:15 | 36.22058 | -5.97426 | 18266 ft | 385 kts | 14° |
| 2026-05-04 14:15 | 36.26730 | -5.94034 | 19288 ft | 404 kts | 39° |
| 2026-05-04 14:16 | 36.30743 | -5.89027 | 20303 ft | 413 kts | 42° |
| 2026-05-04 14:16 | 36.32775 | -5.86482 | 20807 ft | 417 kts | 42° |
| 2026-05-04 14:17 | 36.36895 | -5.81319 | 21827 ft | 425 kts | 41° |
| 2026-05-04 14:17 | 36.38980 | -5.78698 | 22338 ft | 429 kts | 41° |
| 2026-05-04 14:17 | 36.43215 | -5.73382 | 23340 ft | 437 kts | 41° |
| 2026-05-04 14:18 | 36.45361 | -5.70691 | 23797 ft | 440 kts | 41° |
| 2026-05-04 14:18 | 36.49713 | -5.65213 | 24528 ft | 450 kts | 41° |
| 2026-05-04 14:19 | 36.54148 | -5.59613 | 25275 ft | 459 kts | 41° |
| 2026-05-04 14:19 | 36.56394 | -5.56769 | 25637 ft | 463 kts | 41° |
| 2026-05-04 14:19 | 36.58661 | -5.53896 | 25999 ft | 467 kts | 41° |
| 2026-05-04 14:19 | 36.60943 | -5.50998 | 26370 ft | 471 kts | 41° |
| 2026-05-04 14:20 | 36.63244 | -5.48072 | 26754 ft | 474 kts | 41° |
| 2026-05-04 14:20 | 36.65561 | -5.45127 | 27120 ft | 477 kts | 41° |
| 2026-05-04 14:20 | 36.67890 | -5.42168 | 27484 ft | 480 kts | 41° |
| 2026-05-04 14:21 | 36.72610 | -5.36185 | 28138 ft | 488 kts | 41° |
| 2026-05-04 14:21 | 36.74995 | -5.33156 | 28430 ft | 491 kts | 41° |
| 2026-05-04 14:21 | 36.77396 | -5.30098 | 28707 ft | 495 kts | 41° |
| 2026-05-04 14:21 | 36.79814 | -5.27010 | 28983 ft | 499 kts | 41° |
| 2026-05-04 14:22 | 36.82246 | -5.23900 | 29301 ft | 502 kts | 41° |
| 2026-05-04 14:22 | 36.84695 | -5.20765 | 29595 ft | 505 kts | 40° |
| 2026-05-04 14:22 | 36.86321 | -5.18680 | 29780 ft | 508 kts | 40° |
| 2026-05-04 14:22 | 36.88789 | -5.15513 | 30080 ft | 511 kts | 41° |
| 2026-05-04 14:23 | 36.93744 | -5.09149 | 30730 ft | 511 kts | 41° |
| 2026-05-04 14:23 | 36.96228 | -5.05963 | 31004 ft | 513 kts | 41° |
| 2026-05-04 14:23 | 36.98725 | -5.02762 | 31249 ft | 514 kts | 41° |
| 2026-05-04 14:24 | 37.01221 | -4.99557 | 31559 ft | 514 kts | 41° |
| 2026-05-04 14:24 | 37.03800 | -4.96481 | 31897 ft | 509 kts | 34° |
| 2026-05-04 14:24 | 37.06638 | -4.93885 | 32209 ft | 502 kts | 25° |
| 2026-05-04 14:24 | 37.09684 | -4.91828 | 32499 ft | 494 kts | 16° |
| 2026-05-04 14:25 | 37.12843 | -4.90176 | 32815 ft | 491 kts | 14° |
| 2026-05-04 14:25 | 37.19142 | -4.86910 | 33622 ft | 488 kts | 15° |
| 2026-05-04 14:25 | 37.22272 | -4.85277 | 33989 ft | 487 kts | 15° |
| 2026-05-04 14:26 | 37.25401 | -4.83639 | 34274 ft | 487 kts | 15° |
| 2026-05-04 14:26 | 37.28523 | -4.82005 | 34531 ft | 486 kts | 15° |
| 2026-05-04 14:26 | 37.31643 | -4.80364 | 34785 ft | 486 kts | 15° |
| 2026-05-04 14:26 | 37.34761 | -4.78723 | 35032 ft | 486 kts | 15° |
| 2026-05-04 14:27 | 37.37876 | -4.77085 | 35267 ft | 485 kts | 14° |
| 2026-05-04 14:27 | 37.40994 | -4.75450 | 35552 ft | 485 kts | 15° |
| 2026-05-04 14:27 | 37.44103 | -4.73819 | 35805 ft | 484 kts | 15° |
| 2026-05-04 14:27 | 37.47217 | -4.72182 | 35956 ft | 486 kts | 15° |
| 2026-05-04 14:28 | 37.53441 | -4.68907 | 35995 ft | 484 kts | 15° |
| 2026-05-04 14:28 | 37.59657 | -4.65626 | 35995 ft | 484 kts | 15° |
| 2026-05-04 14:29 | 37.72070 | -4.59063 | 35991 ft | 483 kts | 15° |
| 2026-05-04 14:30 | 37.78227 | -4.55797 | 35975 ft | 483 kts | 15° |
| 2026-05-04 14:31 | 37.87533 | -4.50858 | 36016 ft | 484 kts | 16° |
| 2026-05-04 14:32 | 37.99949 | -4.44219 | 36001 ft | 484 kts | 16° |
| 2026-05-04 14:32 | 38.06154 | -4.40912 | 35987 ft | 483 kts | 16° |
| 2026-05-04 14:33 | 38.12349 | -4.37597 | 36015 ft | 483 kts | 16° |
| 2026-05-04 14:33 | 38.18541 | -4.34266 | 36001 ft | 483 kts | 16° |
| 2026-05-04 14:34 | 38.24726 | -4.30940 | 35989 ft | 482 kts | 16° |
| 2026-05-04 14:34 | 38.30906 | -4.27608 | 35990 ft | 483 kts | 16° |
| 2026-05-04 14:35 | 38.37092 | -4.24265 | 35981 ft | 483 kts | 16° |
| 2026-05-04 14:35 | 38.43272 | -4.20925 | 35982 ft | 483 kts | 16° |
| 2026-05-04 14:36 | 38.49458 | -4.17569 | 35981 ft | 483 kts | 16° |
| 2026-05-04 14:36 | 38.55639 | -4.14207 | 35981 ft | 483 kts | 16° |
| 2026-05-04 14:37 | 38.61819 | -4.10851 | 36008 ft | 483 kts | 17° |
| 2026-05-04 14:37 | 38.67997 | -4.07478 | 35998 ft | 482 kts | 17° |
| 2026-05-04 14:38 | 38.74163 | -4.04120 | 35988 ft | 482 kts | 17° |
| 2026-05-04 14:38 | 38.80331 | -4.00755 | 35983 ft | 481 kts | 17° |
| 2026-05-04 14:39 | 38.86489 | -3.97372 | 36009 ft | 481 kts | 17° |
| 2026-05-04 14:39 | 38.92599 | -3.94010 | 35996 ft | 481 kts | 17° |
| 2026-05-04 14:40 | 39.01823 | -3.88936 | 35991 ft | 481 kts | 17° |
| 2026-05-04 14:40 | 39.07970 | -3.85553 | 35994 ft | 481 kts | 17° |
| 2026-05-04 14:41 | 39.14108 | -3.82158 | 35975 ft | 480 kts | 17° |
| 2026-05-04 14:42 | 39.26397 | -3.75350 | 35957 ft | 481 kts | 17° |
| 2026-05-04 14:42 | 39.32551 | -3.71942 | 35986 ft | 481 kts | 18° |
| 2026-05-04 14:43 | 39.38702 | -3.68506 | 35980 ft | 481 kts | 18° |
| 2026-05-04 14:43 | 39.44846 | -3.65062 | 35967 ft | 481 kts | 18° |
| 2026-05-04 14:44 | 39.50995 | -3.61630 | 35966 ft | 481 kts | 18° |
| 2026-05-04 14:44 | 39.57142 | -3.58193 | 35992 ft | 481 kts | 18° |
| 2026-05-04 14:45 | 39.63276 | -3.54749 | 35978 ft | 480 kts | 18° |
| 2026-05-04 14:45 | 39.69408 | -3.51294 | 35971 ft | 480 kts | 18° |
| 2026-05-04 14:46 | 39.75533 | -3.47838 | 35992 ft | 480 kts | 18° |
| 2026-05-04 14:46 | 39.81399 | -3.43565 | 35982 ft | 486 kts | 29° |
| 2026-05-04 14:47 | 39.87042 | -3.38711 | 35959 ft | 486 kts | 29° |
| 2026-05-04 14:47 | 39.92690 | -3.33852 | 35961 ft | 487 kts | 29° |
| 2026-05-04 14:48 | 39.98337 | -3.28996 | 35960 ft | 486 kts | 29° |
| 2026-05-04 14:48 | 40.03981 | -3.24129 | 35987 ft | 486 kts | 29° |
| 2026-05-04 14:49 | 40.09612 | -3.19250 | 35983 ft | 486 kts | 29° |
| 2026-05-04 14:49 | 40.15242 | -3.14373 | 35978 ft | 486 kts | 29° |
| 2026-05-04 14:50 | 40.20873 | -3.09483 | 35976 ft | 486 kts | 29° |
| 2026-05-04 14:50 | 40.26463 | -3.04631 | 35973 ft | 485 kts | 29° |
| 2026-05-04 14:51 | 40.32085 | -2.99740 | 35964 ft | 485 kts | 29° |
| 2026-05-04 14:51 | 40.37701 | -2.94819 | 35960 ft | 486 kts | 29° |
| 2026-05-04 14:52 | 40.43318 | -2.89891 | 35964 ft | 485 kts | 29° |
| 2026-05-04 14:52 | 40.48933 | -2.84970 | 35979 ft | 485 kts | 29° |
| 2026-05-04 14:53 | 40.54548 | -2.80029 | 35981 ft | 486 kts | 29° |
| 2026-05-04 14:53 | 40.60155 | -2.75083 | 35972 ft | 485 kts | 30° |
| 2026-05-04 14:54 | 40.65760 | -2.70126 | 35972 ft | 485 kts | 30° |
| 2026-05-04 14:54 | 40.71364 | -2.65169 | 35950 ft | 485 kts | 30° |
| 2026-05-04 14:55 | 40.76967 | -2.60210 | 35952 ft | 485 kts | 30° |
| 2026-05-04 14:55 | 40.82576 | -2.55227 | 35952 ft | 486 kts | 30° |
| 2026-05-04 14:56 | 40.88180 | -2.50239 | 35975 ft | 486 kts | 30° |
| 2026-05-04 14:56 | 40.93782 | -2.45234 | 35986 ft | 485 kts | 30° |
| 2026-05-04 14:57 | 40.99333 | -2.40271 | 35983 ft | 485 kts | 30° |
| 2026-05-04 14:57 | 41.04859 | -2.35153 | 35978 ft | 486 kts | 33° |
| 2026-05-04 14:58 | 41.10154 | -2.29564 | 35975 ft | 487 kts | 36° |
| 2026-05-04 14:58 | 41.15351 | -2.23810 | 35967 ft | 487 kts | 37° |
| 2026-05-04 14:59 | 41.20597 | -2.18115 | 35963 ft | 487 kts | 36° |
| 2026-05-04 15:00 | 41.28543 | -2.09692 | 35953 ft | 487 kts | 36° |
| 2026-05-04 15:00 | 41.33828 | -2.04057 | 35982 ft | 487 kts | 36° |
| 2026-05-04 15:01 | 41.41729 | -1.95567 | 35963 ft | 486 kts | 36° |
| 2026-05-04 15:01 | 41.46989 | -1.89894 | 35936 ft | 486 kts | 37° |
| 2026-05-04 15:02 | 41.52242 | -1.84225 | 35941 ft | 486 kts | 37° |
| 2026-05-04 15:02 | 41.57456 | -1.78587 | 35951 ft | 486 kts | 37° |
| 2026-05-04 15:03 | 41.62700 | -1.72906 | 35951 ft | 485 kts | 37° |
| 2026-05-04 15:03 | 41.67973 | -1.67191 | 35951 ft | 484 kts | 37° |
| 2026-05-04 15:04 | 41.73165 | -1.61551 | 35947 ft | 484 kts | 37° |
| 2026-05-04 15:04 | 41.78387 | -1.55853 | 35973 ft | 484 kts | 38° |
| 2026-05-04 15:05 | 41.83601 | -1.50144 | 35947 ft | 484 kts | 38° |
| 2026-05-04 15:05 | 41.88828 | -1.44431 | 35939 ft | 485 kts | 38° |
| 2026-05-04 15:06 | 41.94052 | -1.38711 | 35938 ft | 485 kts | 38° |
| 2026-05-04 15:07 | 42.01877 | -1.30094 | 35947 ft | 485 kts | 38° |
| 2026-05-04 15:07 | 42.07088 | -1.24337 | 35947 ft | 485 kts | 38° |
| 2026-05-04 15:08 | 42.12309 | -1.18573 | 35947 ft | 485 kts | 38° |
| 2026-05-04 15:08 | 42.17527 | -1.12800 | 35920 ft | 485 kts | 39° |
| 2026-05-04 15:09 | 42.22758 | -1.07011 | 35934 ft | 487 kts | 39° |
| 2026-05-04 15:09 | 42.27995 | -1.01186 | 35924 ft | 488 kts | 39° |
| 2026-05-04 15:10 | 42.35849 | -0.92396 | 35927 ft | 489 kts | 39° |
| 2026-05-04 15:11 | 42.42740 | -0.84426 | 35938 ft | 489 kts | 47° |
| 2026-05-04 15:11 | 42.47009 | -0.77276 | 35945 ft | 488 kts | 53° |
| 2026-05-04 15:12 | 42.51149 | -0.69981 | 35903 ft | 489 kts | 54° |
| 2026-05-04 15:12 | 42.55293 | -0.62695 | 35924 ft | 488 kts | 54° |
| 2026-05-04 15:13 | 42.59425 | -0.55392 | 35939 ft | 487 kts | 54° |
| 2026-05-04 15:13 | 42.63550 | -0.48077 | 35957 ft | 488 kts | 54° |
| 2026-05-04 15:14 | 42.67664 | -0.40747 | 35969 ft | 487 kts | 54° |
| 2026-05-04 15:14 | 42.71779 | -0.33436 | 35979 ft | 486 kts | 54° |
| 2026-05-04 15:15 | 42.75875 | -0.26134 | 35966 ft | 485 kts | 54° |
| 2026-05-04 15:15 | 42.79971 | -0.18825 | 35977 ft | 483 kts | 54° |
| 2026-05-04 15:16 | 42.86302 | -0.08141 | 35958 ft | 485 kts | 52° |
| 2026-05-04 15:17 | 42.92805 | 0.02466 | 35933 ft | 486 kts | 52° |
| 2026-05-04 15:17 | 42.99236 | 0.13242 | 35950 ft | 489 kts | 52° |
| 2026-05-04 15:18 | 43.03510 | 0.20458 | 35968 ft | 488 kts | 52° |
| 2026-05-04 15:19 | 43.09922 | 0.31242 | 35974 ft | 486 kts | 52° |
| 2026-05-04 15:19 | 43.16321 | 0.42024 | 35949 ft | 487 kts | 52° |
| 2026-05-04 15:20 | 43.20583 | 0.49232 | 35942 ft | 487 kts | 53° |
| 2026-05-04 15:20 | 43.24838 | 0.56457 | 35959 ft | 487 kts | 53° |
| 2026-05-04 15:21 | 43.29082 | 0.63692 | 35956 ft | 487 kts | 53° |
| 2026-05-04 15:22 | 43.35429 | 0.74569 | 35954 ft | 486 kts | 53° |
| 2026-05-04 15:22 | 43.41782 | 0.85456 | 35923 ft | 486 kts | 53° |
| 2026-05-04 15:23 | 43.46007 | 0.92706 | 35916 ft | 486 kts | 53° |
| 2026-05-04 15:23 | 43.50218 | 0.99955 | 35921 ft | 485 kts | 53° |
| 2026-05-04 15:24 | 43.58620 | 1.14522 | 35925 ft | 485 kts | 54° |
| 2026-05-04 15:25 | 43.62785 | 1.21763 | 35933 ft | 485 kts | 54° |
| 2026-05-04 15:26 | 43.69055 | 1.32707 | 35946 ft | 485 kts | 54° |
| 2026-05-04 15:26 | 43.75068 | 1.43939 | 35943 ft | 484 kts | 57° |
| 2026-05-04 15:27 | 43.81000 | 1.55239 | 35913 ft | 484 kts | 56° |
| 2026-05-04 15:28 | 43.86983 | 1.66484 | 35930 ft | 483 kts | 55° |
| 2026-05-04 15:29 | 43.92958 | 1.77737 | 35921 ft | 483 kts | 56° |
| 2026-05-04 15:30 | 44.06402 | 2.04486 | 35908 ft | 483 kts | 57° |
| 2026-05-04 15:31 | 44.12129 | 2.16031 | 35923 ft | 484 kts | 57° |
| 2026-05-04 15:32 | 44.21656 | 2.35347 | 35918 ft | 484 kts | 57° |
| 2026-05-04 15:34 | 44.31170 | 2.54782 | 35947 ft | 485 kts | 57° |
| 2026-05-04 15:34 | 44.36860 | 2.66482 | 35956 ft | 485 kts | 57° |
| 2026-05-04 15:35 | 44.42547 | 2.78202 | 35943 ft | 486 kts | 57° |
| 2026-05-04 15:36 | 44.48238 | 2.89967 | 35949 ft | 486 kts | 57° |
| 2026-05-04 15:36 | 44.51995 | 2.97777 | 35960 ft | 486 kts | 57° |
| 2026-05-04 15:37 | 44.55765 | 3.05648 | 35950 ft | 486 kts | 57° |
| 2026-05-04 15:37 | 44.59540 | 3.13530 | 35964 ft | 487 kts | 57° |
| 2026-05-04 15:38 | 44.63180 | 3.21549 | 35981 ft | 487 kts | 61° |
| 2026-05-04 15:38 | 44.66459 | 3.29857 | 35982 ft | 486 kts | 64° |
| 2026-05-04 15:39 | 44.69654 | 3.38230 | 35993 ft | 486 kts | 63° |
| 2026-05-04 15:40 | 44.74603 | 3.50699 | 35990 ft | 487 kts | 62° |
| 2026-05-04 15:40 | 44.77935 | 3.59002 | 35997 ft | 487 kts | 62° |
| 2026-05-04 15:41 | 44.81239 | 3.67291 | 35998 ft | 485 kts | 63° |
| 2026-05-04 15:41 | 44.84506 | 3.75602 | 35994 ft | 485 kts | 63° |
| 2026-05-04 15:42 | 44.87769 | 3.83937 | 35976 ft | 485 kts | 63° |
| 2026-05-04 15:42 | 44.91039 | 3.92274 | 35976 ft | 486 kts | 63° |
| 2026-05-04 15:43 | 44.94314 | 4.00620 | 36006 ft | 487 kts | 63° |
| 2026-05-04 15:43 | 44.97583 | 4.08977 | 36010 ft | 486 kts | 63° |
| 2026-05-04 15:44 | 45.00841 | 4.17355 | 36016 ft | 486 kts | 63° |
| 2026-05-04 15:44 | 45.04084 | 4.25735 | 35992 ft | 486 kts | 63° |
| 2026-05-04 15:45 | 45.07332 | 4.34121 | 36000 ft | 487 kts | 63° |
| 2026-05-04 15:45 | 45.08959 | 4.38332 | 35844 ft | 488 kts | 63° |
| 2026-05-04 15:45 | 45.10582 | 4.42550 | 35597 ft | 488 kts | 63° |
| 2026-05-04 15:45 | 45.12202 | 4.46766 | 35359 ft | 486 kts | 63° |
| 2026-05-04 15:46 | 45.13811 | 4.50960 | 35069 ft | 483 kts | 63° |
| 2026-05-04 15:46 | 45.15409 | 4.55137 | 34462 ft | 482 kts | 63° |
| 2026-05-04 15:46 | 45.17002 | 4.59306 | 33855 ft | 481 kts | 63° |
| 2026-05-04 15:46 | 45.18593 | 4.63462 | 33299 ft | 477 kts | 63° |
| 2026-05-04 15:47 | 45.20166 | 4.67571 | 32812 ft | 472 kts | 63° |
| 2026-05-04 15:47 | 45.21724 | 4.71644 | 32282 ft | 468 kts | 63° |
| 2026-05-04 15:47 | 45.23268 | 4.75691 | 31770 ft | 465 kts | 64° |
| 2026-05-04 15:47 | 45.24798 | 4.79711 | 31269 ft | 461 kts | 64° |
| 2026-05-04 15:48 | 45.26315 | 4.83710 | 30773 ft | 458 kts | 64° |
| 2026-05-04 15:48 | 45.27819 | 4.87676 | 30286 ft | 456 kts | 64° |
| 2026-05-04 15:48 | 45.30776 | 4.95494 | 29304 ft | 447 kts | 65° |
| 2026-05-04 15:49 | 45.32233 | 4.99360 | 28840 ft | 442 kts | 65° |
| 2026-05-04 15:49 | 45.33673 | 5.03182 | 28376 ft | 436 kts | 65° |
| 2026-05-04 15:49 | 45.35099 | 5.06964 | 27957 ft | 431 kts | 64° |
| 2026-05-04 15:49 | 45.36508 | 5.10709 | 27516 ft | 427 kts | 64° |
| 2026-05-04 15:50 | 45.37902 | 5.14423 | 27064 ft | 424 kts | 64° |
| 2026-05-04 15:50 | 45.39280 | 5.18106 | 26622 ft | 421 kts | 64° |
| 2026-05-04 15:50 | 45.40651 | 5.21775 | 26178 ft | 418 kts | 64° |
| 2026-05-04 15:50 | 45.42011 | 5.25412 | 25718 ft | 415 kts | 64° |
| 2026-05-04 15:51 | 45.43365 | 5.29033 | 25259 ft | 413 kts | 64° |
| 2026-05-04 15:51 | 45.44710 | 5.32638 | 24777 ft | 411 kts | 64° |
| 2026-05-04 15:51 | 45.46046 | 5.36232 | 24296 ft | 410 kts | 65° |
| 2026-05-04 15:51 | 45.47394 | 5.39797 | 23811 ft | 409 kts | 61° |
| 2026-05-04 15:52 | 45.49103 | 5.43051 | 23271 ft | 411 kts | 48° |
| 2026-05-04 15:52 | 45.51218 | 5.45723 | 22763 ft | 401 kts | 36° |
| 2026-05-04 15:52 | 45.53569 | 5.47783 | 22317 ft | 395 kts | 30° |
| 2026-05-04 15:52 | 45.55942 | 5.49745 | 21851 ft | 393 kts | 30° |
| 2026-05-04 15:53 | 45.58295 | 5.51700 | 21396 ft | 390 kts | 30° |
| 2026-05-04 15:53 | 45.60628 | 5.53641 | 20950 ft | 387 kts | 30° |
| 2026-05-04 15:53 | 45.62951 | 5.55575 | 20491 ft | 386 kts | 30° |
| 2026-05-04 15:53 | 45.65265 | 5.57508 | 20048 ft | 384 kts | 30° |
| 2026-05-04 15:54 | 45.67565 | 5.59431 | 19622 ft | 382 kts | 30° |
| 2026-05-04 15:54 | 45.69863 | 5.61315 | 19166 ft | 380 kts | 29° |
| 2026-05-04 15:54 | 45.72171 | 5.63148 | 18738 ft | 379 kts | 28° |
| 2026-05-04 15:54 | 45.74480 | 5.64952 | 18319 ft | 378 kts | 28° |
| 2026-05-04 15:55 | 45.76790 | 5.66744 | 17840 ft | 377 kts | 28° |
| 2026-05-04 15:55 | 45.79086 | 5.68532 | 17521 ft | 373 kts | 28° |
| 2026-05-04 15:55 | 45.80585 | 5.69707 | 17330 ft | 369 kts | 28° |
| 2026-05-04 15:55 | 45.83541 | 5.72037 | 16948 ft | 363 kts | 28° |
| 2026-05-04 15:56 | 45.85741 | 5.73780 | 16666 ft | 360 kts | 29° |
| 2026-05-04 15:56 | 45.87805 | 5.75795 | 16384 ft | 357 kts | 41° |
| 2026-05-04 15:56 | 45.89510 | 5.78351 | 16101 ft | 353 kts | 54° |
| 2026-05-04 15:56 | 45.90951 | 5.81191 | 15830 ft | 352 kts | 56° |
| 2026-05-04 15:57 | 45.92388 | 5.84034 | 15561 ft | 351 kts | 55° |
| 2026-05-04 15:57 | 45.93359 | 5.85946 | 15379 ft | 349 kts | 55° |
| 2026-05-04 15:57 | 45.94777 | 5.88741 | 15113 ft | 345 kts | 55° |
| 2026-05-04 15:57 | 45.96348 | 5.91319 | 14841 ft | 342 kts | 45° |
| 2026-05-04 15:58 | 45.98029 | 5.93715 | 14577 ft | 338 kts | 45° |
| 2026-05-04 15:58 | 45.99691 | 5.96086 | 14306 ft | 335 kts | 46° |
| 2026-05-04 15:58 | 46.01334 | 5.98448 | 14049 ft | 333 kts | 46° |
| 2026-05-04 15:58 | 46.02969 | 6.00811 | 13782 ft | 333 kts | 46° |
| 2026-05-04 15:59 | 46.04575 | 6.03139 | 13493 ft | 331 kts | 46° |
| 2026-05-04 15:59 | 46.06218 | 6.05522 | 13199 ft | 330 kts | 46° |
| 2026-05-04 15:59 | 46.07834 | 6.07856 | 12913 ft | 328 kts | 46° |
| 2026-05-04 15:59 | 46.09440 | 6.10175 | 12627 ft | 327 kts | 46° |
| 2026-05-04 16:00 | 46.11037 | 6.12500 | 12333 ft | 325 kts | 46° |
| 2026-05-04 16:00 | 46.12596 | 6.14797 | 12003 ft | 325 kts | 47° |
| 2026-05-04 16:00 | 46.14187 | 6.17159 | 11674 ft | 323 kts | 47° |
| 2026-05-04 16:00 | 46.15745 | 6.19480 | 11342 ft | 322 kts | 47° |
| 2026-05-04 16:01 | 46.17300 | 6.21797 | 11032 ft | 322 kts | 47° |
| 2026-05-04 16:01 | 46.18832 | 6.24078 | 10713 ft | 318 kts | 47° |
| 2026-05-04 16:01 | 46.20367 | 6.26356 | 10403 ft | 316 kts | 47° |
| 2026-05-04 16:01 | 46.21905 | 6.28622 | 10085 ft | 314 kts | 47° |
| 2026-05-04 16:02 | 46.23437 | 6.30867 | 9748 ft | 313 kts | 47° |
| 2026-05-04 16:02 | 46.24955 | 6.33090 | 9423 ft | 310 kts | 47° |
| 2026-05-04 16:02 | 46.27957 | 6.37500 | 8751 ft | 305 kts | 47° |
| 2026-05-04 16:03 | 46.29440 | 6.39677 | 8417 ft | 302 kts | 47° |
| 2026-05-04 16:03 | 46.30957 | 6.41753 | 8080 ft | 299 kts | 36° |
| 2026-05-04 16:03 | 46.32838 | 6.42934 | 7756 ft | 295 kts | 10° |
| 2026-05-04 16:03 | 46.34850 | 6.42814 | 7436 ft | 290 kts | 343° |
| 2026-05-04 16:04 | 46.36589 | 6.41458 | 7105 ft | 280 kts | 317° |
| 2026-05-04 16:04 | 46.38943 | 6.37365 | 6247 ft | 256 kts | 283° |
| 2026-05-04 16:04 | 46.39083 | 6.34890 | 5789 ft | 243 kts | 257° |
| 2026-05-04 16:05 | 46.38492 | 6.32680 | 5334 ft | 233 kts | 233° |
| 2026-05-04 16:05 | 46.37426 | 6.30970 | 4937 ft | 225 kts | 224° |
| 2026-05-04 16:05 | 46.35326 | 6.27874 | 4334 ft | 206 kts | 225° |
| 2026-05-04 16:06 | 46.34346 | 6.26426 | 4091 ft | 198 kts | 225° |
| 2026-05-04 16:06 | 46.31855 | 6.22749 | 3378 ft | 188 kts | 225° |
| 2026-05-04 16:07 | 46.30667 | 6.20996 | 3039 ft | 175 kts | 226° |
| 2026-05-04 16:07 | 46.28338 | 6.17565 | 2346 ft | 151 kts | 227° |
| 2026-05-04 16:08 | 46.27606 | 6.16490 | 2137 ft | 149 kts | 227° |
| 2026-05-04 16:08 | 46.25457 | 6.13327 | 1540 ft | 146 kts | 227° |
| 2026-05-04 16:09 | 46.24198 | 6.11472 | 1375 ft | 72 kts | 225° |
| 2026-05-04 16:09 | 46.23765 | 6.10847 | 1380 ft | 23 kts | 218° |
| 2026-05-04 16:10 | 46.23534 | 6.10703 | 1384 ft | 10 kts | 195° |
| 2026-05-04 16:11 | 46.23503 | 6.10783 | 1389 ft | 7 kts | 46° |
| 2026-05-04 16:11 | 46.23534 | 6.10829 | 1391 ft | 7 kts | 47° |
| 2026-05-04 16:12 | 46.23502 | 6.10916 | 1393 ft | 0 kts | 136° |